Time;durP1;ratioP1;P1;durP2;ratioP2;P2;SDS_P1;SDS_P2;PMS_P1;PMS_P2;Temp;Humidity;BMP_temperature;BMP_pressure;BME280_temperature;BME280_humidity;BME280_pressure;Samples;Min_cycle;Max_cycle;Signal;HPM_P1;HPM_P2
2023/01/23 00:00:42;;;;;;;34.15;16.65;;;-3.50;74.70;;;;;;5054316;28;20443;-74
2023/01/23 00:03:09;;;;;;;29.27;17.20;;;-3.50;74.30;;;;;;5066448;28;20186;-73
2023/01/23 00:05:37;;;;;;;26.52;14.57;;;-3.70;73.90;;;;;;5073943;28;20225;-75
2023/01/23 00:08:04;;;;;;;27.08;15.93;;;-3.70;73.90;;;;;;5062171;28;20236;-74
2023/01/23 00:10:32;;;;;;;22.90;13.70;;;-3.80;74.30;;;;;;5068043;28;20194;-75
2023/01/23 00:12:59;;;;;;;31.35;14.93;;;-3.80;75.20;;;;;;5063647;28;20186;-74
2023/01/23 00:15:27;;;;;;;31.77;15.20;;;-3.80;76.50;;;;;;5054306;28;20190;-75
2023/01/23 00:17:54;;;;;;;29.90;13.77;;;-3.80;77.40;;;;;;5061729;28;20286;-74
2023/01/23 00:20:21;;;;;;;26.73;14.63;;;-3.70;78.10;;;;;;5073607;28;20225;-74
2023/01/23 00:22:48;;;;;;;28.98;13.57;;;-3.80;78.10;;;;;;5066370;28;20197;-75
2023/01/23 00:25:16;;;;;;;28.45;15.45;;;-3.70;78.80;;;;;;5054196;28;20267;-74
2023/01/23 00:27:44;;;;;;;20.55;10.95;;;-3.70;78.60;;;;;;5058948;28;20261;-74
2023/01/23 00:30:12;;;;;;;26.35;14.60;;;-3.70;77.80;;;;;;5073363;28;20229;-75
2023/01/23 00:32:39;;;;;;;23.85;12.70;;;-3.80;77.40;;;;;;5053895;28;20648;-73
2023/01/23 00:35:07;;;;;;;27.83;13.70;;;-3.70;77.00;;;;;;5053922;28;20660;-73
2023/01/23 00:37:35;;;;;;;34.13;15.18;;;-3.70;76.90;;;;;;5061183;28;20190;-74
2023/01/23 00:40:03;;;;;;;24.10;13.65;;;;;;;;;;5073547;28;20218;-74
2023/01/23 00:42:30;;;;;;;23.25;14.18;;;;;;;;;;5066705;28;20287;-74
2023/01/23 00:44:59;;;;;;;22.88;13.63;;;;;;;;;;5053132;28;20650;-74
2023/01/23 00:47:27;;;;;;;20.10;12.23;;;;;;;;;;5053704;28;20194;-75
2023/01/23 00:49:56;;;;;;;23.65;11.80;;;;;;;;;;5053036;28;20198;-74
2023/01/23 00:52:24;;;;;;;23.38;11.80;;;;;;;;;;5054033;28;20206;-74
2023/01/23 00:54:52;;;;;;;19.27;13.00;;;;;;;;;;5064095;28;20197;-74
2023/01/23 00:57:19;;;;;;;18.17;10.57;;;;;;;;;;5052469;28;20198;-74
2023/01/23 00:59:47;;;;;;;18.95;12.05;;;;;;;;;;5055041;28;20200;-73
2023/01/23 01:02:16;;;;;;;20.85;12.48;;;;;;;;;;5073193;28;20248;-73
2023/01/23 01:04:44;;;;;;;23.15;12.35;;;;;;;;;;5071076;28;20224;-73
2023/01/23 01:07:12;;;;;;;19.25;11.73;;;;;;;;;;5053094;28;20201;-74
2023/01/23 01:09:39;;;;;;;28.13;12.00;;;;;;;;;;5053816;28;20240;-75
2023/01/23 01:12:07;;;;;;;23.65;13.27;;;;;;;;;;5072784;28;20209;-73
2023/01/23 01:14:35;;;;;;;20.17;12.10;;;;;;;;;;5072170;28;20194;-75
2023/01/23 01:17:03;;;;;;;26.75;12.63;;;;;;;;;;5052748;28;20201;-74
2023/01/23 01:19:32;;;;;;;24.60;12.50;;;;;;;;;;5052732;28;20236;-74
2023/01/23 01:22:00;;;;;;;20.30;12.65;;;;;;;;;;5071805;28;20213;-74
2023/01/23 01:24:27;;;;;;;24.38;11.30;;;;;;;;;;5072821;28;20186;-74
2023/01/23 01:26:55;;;;;;;21.85;12.60;;;;;;;;;;5052902;28;20197;-74
2023/01/23 01:29:23;;;;;;;26.98;13.00;;;;;;;;;;5056702;28;20182;-74
2023/01/23 01:31:50;;;;;;;22.58;13.00;;;;;;;;;;5072614;28;20637;-74
2023/01/23 01:34:18;;;;;;;21.50;13.35;;;;;;;;;;5060053;28;20656;-74
2023/01/23 01:36:47;;;;;;;27.98;12.63;;;;;;;;;;5052538;28;20533;-75
2023/01/23 01:39:15;;;;;;;23.35;11.77;;;;;;;;;;5053252;28;20189;-76
2023/01/23 01:41:43;;;;;;;28.05;13.50;;;;;;;;;;5052119;28;20222;-73
2023/01/23 01:44:13;;;;;;;17.42;12.13;;;;;;;;;;5052236;28;20193;-74
2023/01/23 01:46:41;;;;;;;22.10;11.57;;;;;;;;;;5052692;28;20218;-74
2023/01/23 01:49:10;;;;;;;20.92;11.13;;;;;;;;;;5054060;28;20272;-74
2023/01/23 01:51:41;;;;;;;22.77;12.77;;;;;;;;;;5072376;28;20200;-74
2023/01/23 01:54:15;;;;;;;20.98;12.15;;;;;;;;;;5070221;28;20189;-74
2023/01/23 01:56:45;;;;;;;25.38;12.50;;;;;;;;;;5052149;28;20560;-73
2023/01/23 01:59:13;;;;;;;20.60;11.93;;;;;;;;;;5054111;28;20200;-74
2023/01/23 02:01:43;;;;;;;23.20;12.60;;;;;;;;;;5071911;28;20221;-74
2023/01/23 02:04:10;;;;;;;19.63;12.75;;;;;;;;;;5070947;28;20203;-74
2023/01/23 02:06:38;;;;;;;18.02;10.63;;;;;;;;;;5052113;28;20206;-75
2023/01/23 02:09:09;;;;;;;25.42;12.20;;;;;;;;;;5051903;28;20190;-77
2023/01/23 02:11:39;;;;;;;21.80;12.25;;;;;;;;;;5052105;28;20213;-74
2023/01/23 02:14:07;;;;;;;22.40;12.07;;;;;;;;;;5052040;28;20652;-74
2023/01/23 02:16:39;;;;;;;23.38;12.18;;;;;;;;;;5071678;28;20182;-74
2023/01/23 02:19:13;;;;;;;21.35;12.20;;;;;;;;;;5071866;28;20653;-74
2023/01/23 02:21:41;;;;;;;20.80;11.52;;;;;;;;;;5072110;28;20754;-74
2023/01/23 02:24:15;;;;;;;21.90;13.00;;;;;;;;;;5072101;28;20304;-74
2023/01/23 02:26:44;;;;;;;22.67;11.65;;;;;;;;;;5052307;28;20548;-73
2023/01/23 02:29:12;;;;;;;22.90;12.75;;;;;;;;;;5052075;28;20195;-75
2023/01/23 02:31:41;;;;;;;27.88;14.35;;;;;;;;;;5057477;28;20186;-74
2023/01/23 02:34:11;;;;;;;24.05;12.65;;;;;;;;;;5055894;28;20201;-73
2023/01/23 02:36:39;;;;;;;21.95;11.95;;;;;;;;;;5073980;28;20198;-74
2023/01/23 02:39:08;;;;;;;23.85;11.90;;;;;;;;;;5073990;28;20178;-74
2023/01/23 02:41:37;;;;;;;20.33;12.60;;;;;;;;;;5075921;28;20639;-83
2023/01/23 02:44:09;;;;;;;22.23;12.75;;;;;;;;;;5065841;28;20193;-74
2023/01/23 02:46:37;;;;;;;27.00;13.98;;;;;;;;;;5055676;28;21128;-74
2023/01/23 02:49:04;;;;;;;26.27;13.75;;;;;;;;;;5063399;28;20535;-75
2023/01/23 02:51:32;;;;;;;26.30;14.40;;;;;;;;;;5075759;28;20197;-74
2023/01/23 02:53:59;;;;;;;24.30;13.90;;;;;;;;;;5067639;28;20285;-74
2023/01/23 02:56:27;;;;;;;25.00;14.45;;;;;;;;;;5055471;28;20273;-74
2023/01/23 03:01:42;;;;;;;22.63;13.63;;;;;;;;;;5072653;28;20241;-74
2023/01/23 03:04:09;;;;;;;21.92;12.73;;;;;;;;;;5055122;28;20281;-73
2023/01/23 03:06:37;;;;;;;24.55;12.80;;;;;;;;;;5056533;28;20186;-73
2023/01/23 03:09:08;;;;;;;27.27;13.65;;;;;;;;;;5075388;28;20201;-73
2023/01/23 03:11:36;;;;;;;27.20;13.05;;;;;;;;;;5073376;28;20565;-74
2023/01/23 03:14:05;;;;;;;25.02;14.13;;;;;;;;;;5055053;28;20194;-73
2023/01/23 03:16:33;;;;;;;27.00;14.07;;;;;;;;;;5055354;28;20253;-74
2023/01/23 03:19:04;;;;;;;25.67;15.85;;;;;;;;;;5055011;28;20277;-75
2023/01/23 03:21:32;;;;;;;30.10;13.93;;;;;;;;;;5055086;28;20276;-75
2023/01/23 03:24:00;;;;;;;30.25;15.82;;;;;;;;;;5074669;28;20197;-79
2023/01/23 03:26:28;;;;;;;26.90;14.90;;;;;;;;;;5074898;28;20194;-73
2023/01/23 03:31:41;;;;;;;23.17;14.23;;;;;;;;;;5074926;28;20239;-76
2023/01/23 03:34:10;;;;;;;30.27;13.60;;;;;;;;;;5054627;28;20273;-74
2023/01/23 03:36:38;;;;;;;25.30;13.70;;;;;;;;;;5054821;28;20237;-74
2023/01/23 03:41:51;;;;;;;26.00;13.63;;;;;;;;;;5064469;28;20294;-74
2023/01/23 03:44:19;;;;;;;24.02;13.98;;;;;;;;;;5074324;28;20259;-74
2023/01/23 03:46:47;;;;;;;26.45;14.10;;;;;;;;;;5065138;28;20304;-75
2023/01/23 03:49:16;;;;;;;25.77;15.18;;;;;;;;;;5054382;28;20194;-74
2023/01/23 03:51:44;;;;;;;25.60;13.23;;;;;;;;;;5062116;28;20551;-74
2023/01/23 03:54:13;;;;;;;26.75;13.40;;;;;;;;;;5074860;28;20543;-73
2023/01/23 03:56:41;;;;;;;21.40;13.40;;;;;;;;;;5067218;28;20222;-73
2023/01/23 03:59:09;;;;;;;19.20;12.52;;;;;;;;;;5054447;28;20190;-74
2023/01/23 04:01:36;;;;;;;23.98;13.65;;;;;;;;;;5062817;28;20297;-75
2023/01/23 04:04:04;;;;;;;22.08;12.02;;;;;;;;;;5074185;28;20197;-74
2023/01/23 04:06:34;;;;;;;23.27;13.90;;;;;;;;;;5059510;28;20644;-74
2023/01/23 04:09:01;;;;;;;26.17;14.43;;;;;;;;;;5054379;28;20191;-74
2023/01/23 04:11:29;;;;;;;21.98;12.80;;;;;;;;;;5067894;28;20190;-74
2023/01/23 04:13:57;;;;;;;18.08;11.55;;;;;;;;;;5074122;28;20193;-75
2023/01/23 04:16:26;;;;;;;25.63;14.48;;;;;;;;;;5061375;28;20225;-74
2023/01/23 04:18:54;;;;;;;21.30;11.90;;;;;;;;;;5053888;28;20198;-73
2023/01/23 04:21:22;;;;;;;21.75;12.85;;;;;;;;;;5065073;28;20214;-73
2023/01/23 04:23:51;;;;;;;23.80;13.82;;;;;;;;;;5074487;28;20267;-74
2023/01/23 04:26:19;;;;;;;22.50;12.57;;;;;;;;;;5063161;28;20549;-73
2023/01/23 04:28:47;;;;;;;24.15;13.05;;;;;;;;;;5054277;28;20273;-73
2023/01/23 04:31:14;;;;;;;22.52;12.80;;;;;;;;;;5073095;28;20194;-76
2023/01/23 04:33:42;;;;;;;27.80;15.30;;;;;;;;;;5073856;28;20205;-74
2023/01/23 04:36:11;;;;;;;22.58;13.63;;;;;;;;;;5054790;28;20191;-74
2023/01/23 04:38:38;;;;;;;25.17;14.23;;;;;;;;;;5053711;28;20198;-74
2023/01/23 04:41:08;;;;;;;22.42;12.00;;;;;;;;;;5070625;28;20224;-73
2023/01/23 04:43:35;;;;;;;27.92;13.73;;;;;;;;;;5073582;28;20185;-74
2023/01/23 04:46:03;;;;;;;21.38;12.70;;;;;;;;;;5056973;28;20225;-74
2023/01/23 04:48:30;;;;;;;21.83;13.70;;;;;;;;;;5053710;28;20198;-74
2023/01/23 04:50:58;;;;;;;22.05;12.77;;;;;;;;;;5068208;28;20239;-75
2023/01/23 04:53:25;;;;;;;24.17;15.23;;;;;;;;;;5069661;28;20189;-74
2023/01/23 04:55:53;;;;;;;27.70;13.73;;;;;;;;;;5052729;28;20273;-74
2023/01/23 04:58:22;;;;;;;22.90;13.13;;;;;;;;;;5055118;28;20197;-73
2023/01/23 05:00:50;;;;;;;23.90;14.02;;;;;;;;;;5072918;28;20277;-76
2023/01/23 05:03:18;;;;;;;22.55;13.35;;;;;;;;;;5071450;28;20189;-74
2023/01/23 05:05:45;;;;;;;22.85;14.13;;;;;;;;;;5053256;28;20190;-74
2023/01/23 05:08:13;;;;;;;25.95;13.50;;;;;;;;;;5053614;28;20323;-74
2023/01/23 05:10:41;;;;;;;28.30;14.60;;;;;;;;;;5053409;28;20196;-74
2023/01/23 05:13:09;;;;;;;24.70;13.82;;;;;;;;;;5053173;28;20196;-74
2023/01/23 05:15:38;;;;;;;24.42;14.02;;;;;;;;;;5053301;28;20649;-74
2023/01/23 05:18:06;;;;;;;25.90;13.73;;;;;;;;;;5053797;28;20571;-75
2023/01/23 05:20:34;;;;;;;24.27;14.25;;;;;;;;;;5052438;28;20198;-74
2023/01/23 05:23:01;;;;;;;24.77;13.48;;;;;;;;;;5062111;28;20218;-74
2023/01/23 05:25:29;;;;;;;25.02;15.15;;;;;;;;;;5073279;28;20560;-74
2023/01/23 05:27:57;;;;;;;29.55;15.02;;;;;;;;;;5064052;28;20675;-80
2023/01/23 05:30:25;;;;;;;25.98;15.50;;;;;;;;;;5052654;28;20688;-74
2023/01/23 05:32:54;;;;;;;29.65;17.75;;;;;;;;;;5059530;28;20189;-74
2023/01/23 05:35:22;;;;;;;23.30;14.38;;;;;;;;;;5072486;28;20189;-74
2023/01/23 05:37:51;;;;;;;23.95;13.43;;;;;;;;;;5066530;28;20182;-74
2023/01/23 05:40:19;;;;;;;26.60;13.82;;;;;;;;;;5052819;28;20197;-75
2023/01/23 05:42:47;;;;;;;30.98;15.32;;;;;;;;;;5057697;28;20213;-74
2023/01/23 05:45:15;;;;;;;29.10;15.10;;;;;;;;;;5072437;28;20226;-74
2023/01/23 05:47:42;;;;;;;24.75;14.10;;;;;;;;;;5067964;28;20205;-74
2023/01/23 05:50:15;;;;;;;24.77;14.65;;;;;;;;;;5052377;28;20201;-75
2023/01/23 05:52:42;;;;;;;28.67;15.18;;;;;;;;;;5056312;28;20713;-74
2023/01/23 05:55:10;;;;;;;25.77;16.90;;;;;;;;;;5060353;28;20225;-73
2023/01/23 05:57:38;;;;;;;26.33;15.73;;;;;;;;;;5062711;28;20335;-75
2023/01/23 06:00:07;;;;;;;30.45;16.70;;;;;;;;;;5070786;28;20197;-74
2023/01/23 06:02:35;;;;;;;32.75;17.73;;;;;;;;;;5072442;28;20217;-74
2023/01/23 06:05:02;;;;;;;27.80;15.13;;;;;;;;;;5068618;28;20198;-74
2023/01/23 06:07:32;;;;;;;28.30;15.75;;;;;;;;;;5054943;28;20608;-74
2023/01/23 06:09:59;;;;;;;26.27;14.27;;;;;;;;;;5058811;28;20193;-74
2023/01/23 06:12:28;;;;;;;28.83;15.93;;;;;;;;;;5055827;28;20273;-74
2023/01/23 06:14:55;;;;;;;23.35;14.57;;;;;;;;;;5051645;28;20715;-74
2023/01/23 06:17:23;;;;;;;28.98;13.93;;;;;;;;;;5052098;28;20186;-76
2023/01/23 06:19:50;;;;;;;26.30;14.85;;;;;;;;;;5051690;28;20550;-74
2023/01/23 06:22:18;;;;;;;26.02;15.50;;;;;;;;;;5051508;28;20214;-74
2023/01/23 06:24:48;;;;;;;32.35;18.10;;;;;;;;;;5064746;28;20324;-74
2023/01/23 06:27:16;;;;;;;29.90;18.80;;;;;;;;;;5067999;28;20193;-76
2023/01/23 06:29:44;;;;;;;31.58;16.90;;;;;;;;;;5070752;28;20485;-75
2023/01/23 06:32:11;;;;;;;25.33;15.40;;;;;;;;;;5056967;28;20265;-76
2023/01/23 06:34:39;;;;;;;28.83;15.02;;;;;;;;;;5050675;28;20186;-74
2023/01/23 06:37:06;;;;;;;29.35;15.15;;;;;;;;;;5063765;28;20240;-74
2023/01/23 06:39:34;;;;;;;25.63;14.85;;;;;;;;;;5052687;28;20617;-75
2023/01/23 06:42:08;;;;;;;28.02;16.08;;;;;;;;;;5050201;28;20579;-75
2023/01/23 06:44:36;;;;;;;28.35;15.75;;;;;;;;;;5054924;28;21508;-74
2023/01/23 06:47:03;;;;;;;24.88;14.32;;;;;;;;;;5062711;28;20186;-75
2023/01/23 06:49:31;;;;;;;27.88;15.23;;;;;;;;;;5055147;28;20206;-74
2023/01/23 06:51:59;;;;;;;26.70;14.60;;;;;;;;;;5051495;28;20277;-74
2023/01/23 06:54:27;;;;;;;30.52;16.92;;;;;;;;;;5056060;28;20256;-74
2023/01/23 06:56:54;;;;;;;27.65;16.23;;;;;;;;;;5064252;28;20722;-74
2023/01/23 06:59:23;;;;;;;30.55;16.67;;;;;;;;;;5059821;28;20201;-74
2023/01/23 07:01:53;;;;;;;30.00;16.23;;;;;;;;;;5067639;28;20301;-73
2023/01/23 07:04:20;;;;;;;30.95;19.23;;;;;;;;;;5049234;28;20239;-74
2023/01/23 07:06:48;;;;;;;28.65;16.45;;;;;;;;;;5054314;28;20236;-75
2023/01/23 07:09:15;;;;;;;24.80;14.95;;;;;;;;;;5058130;28;20595;-74
2023/01/23 07:11:42;;;;;;;26.02;13.50;;;;;;;;;;5056342;28;20280;-74
2023/01/23 07:14:09;;;;;;;26.00;15.80;;;;;;;;;;5064136;28;20276;-75
2023/01/23 07:16:38;;;;;;;28.63;16.60;;;;;;;;;;5052215;28;20625;-76
2023/01/23 07:19:05;;;;;;;26.55;14.35;;;;;;;;;;5062652;28;20232;-74
2023/01/23 07:21:33;;;;;;;27.55;15.15;;;;;;;;;;5061806;28;20203;-73
2023/01/23 07:24:00;;;;;;;27.60;15.13;;;;;;;;;;5064181;28;20213;-74
2023/01/23 07:26:27;;;;;;;26.20;16.58;;;;;;;;;;5061102;28;20226;-74
2023/01/23 07:28:54;;;;;;;30.25;17.83;;;;;;;;;;5066606;28;20241;-75
2023/01/23 07:31:22;;;;;;;26.05;15.07;;;;;;;;;;5056397;28;20204;-75
2023/01/23 07:33:50;;;;;;;30.45;15.85;;;;;;;;;;5068520;28;20189;-74
2023/01/23 07:36:18;;;;;;;26.42;16.40;;;;;;;;;;5062416;28;20592;-79
2023/01/23 07:38:45;;;;;;;32.97;17.48;;;;;;;;;;5054037;28;20285;-74
2023/01/23 07:41:13;;;;;;;28.75;15.48;;;;;;;;;;5057304;28;20265;-75
2023/01/23 07:43:40;;;;;;;28.83;17.55;;;;;;;;;;5071188;28;20224;-74
2023/01/23 07:46:08;;;;;;;30.38;16.45;;;;;;;;;;5053785;28;20229;-74
2023/01/23 07:48:36;;;;;;;23.63;14.93;;;;;;;;;;5048862;28;20219;-74
2023/01/23 07:51:06;;;;;;;22.55;13.25;;;;;;;;;;5051399;28;20268;-74
2023/01/23 07:53:35;;;;;;;23.58;14.63;;;;;;;;;;5040295;28;20579;-74
2023/01/23 07:56:04;;;;;;;32.58;17.15;;;;;;;;;;5041099;28;20210;-74
2023/01/23 07:58:32;;;;;;;22.75;15.07;;;;;;;;;;5052196;28;20206;-74
2023/01/23 08:01:00;;;;;;;26.50;17.10;;;;;;;;;;5053774;28;20213;-74
2023/01/23 08:03:28;;;;;;;29.20;16.95;;;;;;;;;;5054102;28;20218;-75
2023/01/23 08:05:56;;;;;;;25.23;15.88;;;;;;;;;;5053449;28;20680;-74
2023/01/23 08:08:24;;;;;;;29.17;17.30;;;;;;;;;;5054734;28;20190;-73
2023/01/23 08:10:51;;;;;;;29.27;17.70;;;;;;;;;;5054799;28;20284;-74
2023/01/23 08:13:18;;;;;;;25.33;16.27;;;;;;;;;;5054819;28;20289;-75
2023/01/23 08:15:46;;;;;;;42.05;22.88;;;;;;;;;;5054687;28;20233;-75
2023/01/23 08:18:13;;;;;;;38.53;20.33;;;;;;;;;;5055028;28;20284;-73
2023/01/23 08:20:40;;;;;;;38.50;20.95;;;;;;;;;;5054768;28;20209;-74
2023/01/23 08:23:07;;;;;;;27.90;16.45;;;;;;;;;;5054622;28;20751;-74
2023/01/23 08:25:38;;;;;;;34.60;18.75;;;;;;;;;;5054409;28;20221;-74
2023/01/23 08:28:05;;;;;;;31.65;17.83;;;;;;;;;;5054257;28;20236;-74
2023/01/23 08:30:33;;;;;;;31.58;18.08;;;;;;;;;;5054275;28;20202;-74
2023/01/23 08:33:03;;;;;;;26.85;16.33;;;;;;;;;;5053800;28;20186;-74
2023/01/23 08:35:30;;;;;;;27.95;17.58;;;;;;;;;;5054214;28;20248;-76
2023/01/23 08:37:57;;;;;;;37.28;19.25;;;;;;;;;;5054173;28;20281;-74
2023/01/23 08:40:25;;;;;;;32.42;19.33;;;;;;;;;;5046076;28;20186;-73
2023/01/23 08:42:54;;;;;;;25.42;16.02;;;;;;;;;;5044552;28;20286;-73
2023/01/23 08:45:21;;;;;;;30.25;16.95;;;;;;;;;;5053254;28;20304;-74
2023/01/23 08:47:48;;;;;;;29.63;14.82;;;;;;;;;;5064715;28;20194;-75
2023/01/23 08:50:15;;;;;;;24.85;14.20;;;;;;;;;;5066779;28;20197;-74
2023/01/23 08:52:42;;;;;;;28.10;17.17;;;;;;;;;;5064446;28;20206;-73
2023/01/23 08:55:11;;;;;;;28.30;16.27;;;;;;;;;;5067714;28;20194;-73
2023/01/23 08:57:38;;;;;;;33.65;16.73;;;;;;;;;;5062609;28;20267;-73
2023/01/23 09:00:09;;;;;;;31.55;17.25;;;;;;;;;;5068102;28;20194;-73
2023/01/23 09:02:36;;;;;;;32.97;16.42;;;;;;;;;;5065253;28;20308;-75
2023/01/23 09:05:04;;;;;;;32.50;17.80;;;;;;;;;;5064559;28;20194;-74
2023/01/23 09:07:31;;;;;;;29.40;17.23;;;;;;;;;;5065750;28;20199;-74
2023/01/23 09:09:58;;;;;;;32.83;19.15;;;;;;;;;;5067236;28;20285;-74
2023/01/23 09:12:25;;;;;;;32.80;17.23;;;;;;;;;;5059404;28;20229;-74
2023/01/23 09:14:53;;;;;;;30.45;17.27;;;;;;;;;;5058108;28;20194;-74
2023/01/23 09:17:22;;;;;;;36.00;19.10;;;;;;;;;;5065207;28;20208;-74
2023/01/23 09:19:50;;;;;;;32.08;18.13;;;;;;;;;;5067279;28;20288;-74
2023/01/23 09:22:17;;;;;;;32.85;18.40;;;;;;;;;;5063883;28;20198;-74
2023/01/23 09:24:44;;;;;;;37.53;23.13;;;;;;;;;;5063883;28;20193;-75
2023/01/23 09:27:11;;;;;;;32.53;19.58;;;;;;;;;;5061463;28;20255;-73
2023/01/23 09:29:38;;;;;;;34.47;20.45;;;;;;;;;;5067050;28;20193;-74
2023/01/23 09:32:06;;;;;;;31.50;18.15;;;;;;;;;;5063658;28;20251;-73
2023/01/23 09:34:34;;;;;;;38.70;20.08;;;;;;;;;;5061914;28;20194;-73
2023/01/23 09:37:02;;;;;;;35.25;20.25;;;;;;;;;;5066320;28;20197;-74
2023/01/23 09:39:29;;;;;;;37.13;20.60;;;;;;;;;;5061912;28;20289;-74
2023/01/23 09:41:58;;;;;;;34.67;20.92;;;;;;;;;;5063376;28;20288;-74
2023/01/23 09:44:30;;;;;;;37.75;19.45;;;;;;;;;;5060650;28;20241;-73
2023/01/23 09:47:01;;;;;;;40.22;20.98;;;;;;;;;;5059879;28;20202;-74
2023/01/23 09:49:31;;;;;;;38.80;20.33;;;;;;;;;;5062754;28;20699;-74
2023/01/23 09:52:02;;;;;;;37.00;20.50;;;;;;;;;;5064118;28;20716;-74
2023/01/23 09:54:33;;;;;;;33.20;19.02;;;;;;;;;;5065287;28;20277;-73
2023/01/23 09:57:01;;;;;;;42.10;21.15;;;;;;;;;;5065897;28;20208;-73
2023/01/23 09:59:34;;;;;;;38.08;18.80;;;;;;;;;;5067058;28;20296;-73
2023/01/23 10:02:01;;;;;;;38.28;18.92;;;;;;;;;;5063601;28;20194;-74
2023/01/23 10:04:28;;;;;;;41.30;19.65;;;;;;;;;;5066087;28;20287;-74
2023/01/23 10:07:10;;;;;;;35.90;18.33;;;;;;;;;;5064814;28;20255;-74
2023/01/23 10:09:45;;;;;;;36.40;19.38;;;;;;;;;;5063321;28;20194;-74
2023/01/23 10:12:16;;;;;;;39.72;20.55;;;;;;;;;;5063438;28;20279;-74
2023/01/23 10:14:52;;;;;;;45.05;19.65;;;;;;;;;;5064043;28;20230;-74
2023/01/23 10:17:23;;;;;;;37.85;19.50;;;;;;;;;;5063731;28;20528;-73
2023/01/23 10:19:56;;;;;;;36.60;19.77;;;;;;;;;;5059856;28;20629;-74
2023/01/23 10:22:33;;;;;;;41.63;21.67;;;;;;;;;;5059754;28;20293;-73
2023/01/23 10:25:03;;;;;;;40.10;20.05;;;;;;;;;;5056907;28;20201;-73
2023/01/23 10:27:33;;;;;;;33.22;17.70;;;;;;;;;;5063334;28;20239;-73
2023/01/23 10:30:02;;;;;;;33.88;18.50;;;;;;;;;;5063151;28;20194;-73
2023/01/23 10:32:31;;;;;;;38.20;18.65;;;;;;;;;;5060652;28;20221;-73
2023/01/23 10:35:00;;;;;;;31.42;16.92;;;;;;;;;;5063457;28;20205;-73
2023/01/23 10:37:37;;;;;;;37.00;18.17;;;;;;;;;;5062560;28;20206;-74
2023/01/23 10:40:08;;;;;;;31.00;16.95;;;;;;;;;;5064044;28;20246;-74
2023/01/23 10:42:35;;;;;;;39.83;19.60;;;;;;;;;;5060292;28;20272;-74
2023/01/23 10:45:02;;;;;;;35.15;17.73;;;;;;;;;;5063535;28;20258;-74
2023/01/23 10:47:32;;;;;;;34.78;19.10;;;;;;;;;;5061364;28;20281;-75
2023/01/23 10:49:59;;;;;;;32.60;18.42;;;;;;;;;;5063577;28;20241;-74
2023/01/23 10:52:30;;;;;;;36.85;17.65;;;;;;;;;;5061167;28;20221;-73
2023/01/23 10:54:57;;;;;;;31.58;16.20;;;;;;;;;;5066660;28;20220;-74
2023/01/23 10:57:27;;;;;;;27.95;17.45;;;;;;;;;;5067244;28;20194;-74
2023/01/23 10:59:56;;;;;;;30.35;16.98;;;;;;;;;;5070643;28;20624;-73
2023/01/23 11:02:27;;;;;;;28.42;17.52;;;;;;;;;;5066385;28;20205;-74
2023/01/23 11:04:54;;;;;;;34.65;18.20;;;;;;;;;;5067364;28;20230;-74
2023/01/23 11:07:22;;;;;;;34.40;17.63;;;;;;;;;;5068728;28;20229;-74
2023/01/23 11:09:54;;;;;;;33.63;17.42;;;;;;;;;;5069073;28;20278;-73
2023/01/23 11:12:22;;;;;;;33.58;17.15;;;;;;;;;;5065765;28;20521;-74
2023/01/23 11:14:51;;;;;;;34.55;18.33;;;;;;;;;;5068809;28;20280;-73
2023/01/23 11:17:20;;;;;;;33.63;18.08;;;;;;;;;;5057627;28;20217;-74
2023/01/23 11:19:50;;;;;;;30.00;16.50;;;;;;;;;;5066538;28;20197;-74
2023/01/23 11:22:38;;;;;;;32.95;17.25;;;;;;;;;;5066140;28;20198;-73
2023/01/23 11:25:26;;;;;;;34.72;18.27;;;;;;;;;;5060471;28;20213;-73
2023/01/23 11:27:57;;;;;;;31.63;16.90;;;;;;;;;;5069099;28;20215;-74
2023/01/23 11:30:34;;;;;;;31.27;17.08;;;;;;;;;;5065970;28;20198;-74
2023/01/23 11:33:06;;;;;;;29.40;16.25;;;;;;;;;;5068464;28;20285;-78
2023/01/23 11:35:44;;;;;;;37.53;20.30;;;;;;;;;;5075080;28;20229;-74
2023/01/23 11:38:13;;;;;;;34.78;19.38;;;;;;;;;;5074954;28;20682;-73
2023/01/23 11:40:43;;;;;;;33.28;19.77;;;;;;;;;;5075103;28;20649;-74
2023/01/23 11:43:16;;;;;;;32.50;16.52;;;;;;;;;;5074876;28;20196;-72
2023/01/23 11:45:49;;;;;;;42.63;20.67;;;;;;;;;;5073088;28;20312;-74
2023/01/23 11:48:25;;;;;;;31.13;18.75;;;;;;;;;;5075157;28;20282;-73
2023/01/23 11:50:58;;;;;;;30.65;17.17;;;;;;;;;;5074860;28;20647;-74
2023/01/23 11:53:29;;;;;;;33.65;17.60;;;;;;;;;;5075192;28;20225;-73
2023/01/23 11:56:08;;;;;;;34.53;17.13;;;;;;;;;;5074332;28;20221;-73
2023/01/23 11:58:47;;;;;;;39.25;20.17;;;;;;;;;;5074997;28;20608;-73
2023/01/23 12:01:21;;;;;;;32.92;17.55;;;;;;;;;;5075028;28;20186;-75
2023/01/23 12:04:02;;;;;;;38.97;19.17;;;;;;;;;;5074451;28;20579;-74
2023/01/23 12:06:39;;;;;;;35.05;17.58;;;;;;;;;;5074065;28;20189;-76
2023/01/23 12:09:11;;;;;;;31.48;15.90;;;;;;;;;;5072364;28;20280;-74
2023/01/23 12:11:41;;;;;;;34.47;17.08;;;;;;;;;;5074645;28;20186;-73
2023/01/23 12:14:13;;;;;;;35.92;20.48;;;;;;;;;;5074410;28;20197;-72
2023/01/23 12:16:53;;;;;;;36.22;20.10;;;;;;;;;;5067264;28;20273;-74
2023/01/23 12:19:27;;;;;;;36.80;18.40;;;;;;;;;;5061109;28;20221;-77
2023/01/23 12:21:58;;;;;;;32.00;17.73;;;;;;;;;;5073130;28;20217;-74
2023/01/23 12:24:32;;;;;;;31.75;16.17;;;;;;;;;;5059948;28;20263;-74
2023/01/23 12:30:04;;;;;;;40.47;17.85;;;;;;;;;;5065052;28;20247;-75
2023/01/23 12:32:40;;;;;;;32.45;17.08;;;;;;;;;;5059570;28;20621;-74
2023/01/23 12:35:17;;;;;;;42.78;20.60;;;;;;;;;;5073224;28;20280;-74
2023/01/23 12:37:51;;;;;;;35.55;17.63;;;;;;;;;;5071856;28;20213;-74
2023/01/23 12:40:23;;;;;;;33.85;17.95;;;;;;;;;;5070340;28;20228;-76
2023/01/23 12:42:53;;;;;;;34.90;19.55;;;;;;;;;;5069544;28;20225;-74
2023/01/23 12:45:22;;;;;;;44.35;19.85;;;;;;;;;;5065998;28;20407;-74
2023/01/23 12:47:54;;;;;;;32.88;17.75;;;;;;;;;;5042438;28;20230;-76
2023/01/23 12:50:23;;;;;;;34.20;18.85;;;;;;;;;;5046353;28;20232;-76
2023/01/23 12:52:51;;;;;;;38.53;20.02;;;;;;;;;;5053952;28;20285;-76
2023/01/23 12:55:21;;;;;;;35.10;19.10;;;;;;;;;;5053804;28;20233;-74
2023/01/23 12:57:53;;;;;;;34.05;18.30;;;;;;;;;;5053831;28;20210;-74
2023/01/23 13:00:38;;;;;;;36.28;18.52;;;;;;;;;;5051180;28;20530;-75
2023/01/23 13:03:24;;;;;;;30.20;17.50;;;;;;;;;;5037095;28;20194;-74
2023/01/23 13:05:56;;;;;;;32.58;17.08;;;;;;;;;;5043427;28;20225;-74
2023/01/23 13:08:28;;;;;;;30.48;16.45;;;;;;;;;;5047941;28;20193;-74
2023/01/23 13:13:46;;;;;;;30.20;15.90;;;;;;;;;;5033777;28;20265;-74
2023/01/23 13:16:14;;;;;;;33.30;16.15;;;;;;;;;;5032858;28;20187;-74
2023/01/23 13:27:30;;;;;;;31.63;14.75;;;;;;;;;;5033790;28;20649;-74
2023/01/23 13:29:58;;;;;;;39.28;19.25;;;;;;;;;;5033235;28;20664;-74
2023/01/23 13:32:29;;;;;;;38.38;17.90;;;;;;;;;;5033104;28;20229;-74
2023/01/23 13:34:56;;;;;;;25.55;14.52;;;;;;;;;;5032840;28;20194;-74
2023/01/23 13:37:49;;;;;;;33.08;17.63;;;;;;;;;;5033247;28;20282;-74
2023/01/23 13:40:20;;;;;;;33.70;19.77;;;;;;;;;;5033333;28;20202;-74
2023/01/23 13:42:47;;;;;;;27.48;16.55;;;;;;;;;;5033192;28;20245;-74
2023/01/23 13:45:22;;;;;;;32.70;16.40;;;;;;;;;;5039188;28;20261;-75
2023/01/23 13:50:41;;;;;;;37.60;16.70;;;;;;;;;;5052974;28;20695;-74
2023/01/23 13:58:46;;;;;;;36.67;17.95;;;;;;;;;;5052981;28;20535;-75
2023/01/23 14:06:46;;;;;;;33.97;17.05;;;;;;;;;;5052850;28;20324;-74
2023/01/23 14:09:21;;;;;;;35.30;18.35;;;;;;;;;;5052752;28;20195;-74
2023/01/23 14:11:56;;;;;;;32.30;17.92;;;;;;;;;;5052626;28;20221;-74
2023/01/23 14:17:09;;;;;;;46.03;18.33;;;;;;;;;;5052683;28;20188;-74
2023/01/23 14:19:39;;;;;;;34.75;17.10;;;;;;;;;;5052530;28;20605;-74
2023/01/23 14:22:07;;;;;;;38.20;18.02;;;;;;;;;;5052138;28;20213;-75
2023/01/23 14:24:43;;;;;;;39.05;18.25;;;;;;;;;;5052625;28;20279;-75
2023/01/23 14:27:19;;;;;;;43.35;24.35;;;;;;;;;;5052977;28;20198;-74
2023/01/23 14:29:56;;;;;;;46.50;24.65;;;;;;;;;;5056573;28;20272;-74
2023/01/23 14:32:23;;;;;;;33.20;19.25;;;;;;;;;;5056795;28;20280;-75
2023/01/23 14:34:51;;;;;;;38.97;22.35;;;;;;;;;;5056523;28;20225;-75
2023/01/23 14:37:18;;;;;;;40.20;22.25;;;;;;;;;;5056677;28;20222;-76
2023/01/23 14:39:47;;;;;;;35.78;20.40;;;;;;;;;;5056459;28;20190;-75
2023/01/23 14:42:21;;;;;;;36.30;19.58;;;;;;;;;;5056471;28;20200;-74
2023/01/23 14:44:48;;;;;;;32.28;19.02;;;;;;;;;;5056229;28;20333;-75
2023/01/23 14:47:17;;;;;;;31.48;18.92;;;;;;;;;;5056642;28;20289;-74
2023/01/23 14:49:44;;;;;;;33.33;18.10;;;;;;;;;;5056329;28;20544;-75
2023/01/23 14:52:24;;;;;;;39.22;20.33;;;;;;;;;;5056216;28;20549;-75
2023/01/23 14:54:51;;;;;;;37.13;20.90;;;;;;;;;;5056473;28;20194;-75
2023/01/23 14:57:21;;;;;;;37.15;19.05;;;;;;;;;;5074885;28;20289;-75
2023/01/23 14:59:49;;;;;;;38.88;19.83;;;;;;;;;;5076369;28;20236;-75
2023/01/23 15:02:26;;;;;;;40.08;19.85;;;;;;;;;;5075948;28;20221;-75